createdAt,value
2023-03-21T00:00:22.541Z,510.00
2023-03-21T00:04:22.566Z,502.00
2023-03-21T00:08:22.500Z,502.00
2023-03-21T00:12:22.441Z,508.00
2023-03-21T00:16:28.344Z,503.00
2023-03-21T00:20:23.355Z,504.00
2023-03-21T00:24:22.328Z,504.00
2023-03-21T00:28:22.268Z,505.00
2023-03-21T00:32:22.264Z,507.00
2023-03-21T00:36:22.250Z,502.00
2023-03-21T00:40:29.368Z,504.00
2023-03-21T00:44:23.215Z,504.00
2023-03-21T00:48:22.225Z,504.00
2023-03-21T00:52:30.782Z,508.00
2023-03-21T00:56:23.088Z,502.00
2023-03-21T01:00:22.068Z,504.00
2023-03-21T01:04:22.078Z,505.00
2023-03-21T01:08:28.191Z,502.00
2023-03-21T01:12:22.982Z,503.00
2023-03-21T01:16:21.965Z,503.00
2023-03-21T01:20:21.908Z,503.00
2023-03-21T01:24:22.238Z,508.00
2023-03-21T01:28:21.930Z,512.00
2023-03-21T01:32:21.938Z,500.00
2023-03-21T01:36:23.498Z,510.00
2023-03-21T01:40:21.800Z,505.00
2023-03-21T01:44:21.812Z,513.00
2023-03-21T01:48:21.839Z,506.00
2023-03-21T01:52:35.491Z,507.00
2023-03-21T01:56:22.882Z,507.00
2023-03-21T02:00:21.836Z,500.00
2023-03-21T02:04:21.847Z,517.00
2023-03-21T02:08:25.873Z,507.00
2023-03-21T02:12:22.808Z,504.00
2023-03-21T02:16:21.830Z,503.00
2023-03-21T02:20:21.765Z,508.00
2023-03-21T02:24:21.821Z,509.00
2023-03-21T02:28:21.864Z,505.00
2023-03-21T02:32:36.308Z,507.00
2023-03-21T02:36:22.917Z,506.00
2023-03-21T02:40:21.861Z,508.00
2023-03-21T02:44:21.834Z,504.00
2023-03-21T02:48:29.271Z,511.00
2023-03-21T02:52:37.378Z,507.00
2023-03-21T02:56:22.821Z,501.00
2023-03-21T03:00:21.745Z,507.00
2023-03-21T03:04:21.764Z,506.00
2023-03-21T03:08:26.634Z,503.00
2023-03-21T03:12:22.645Z,506.00
2023-03-21T03:16:21.617Z,506.00
2023-03-21T03:20:21.574Z,507.00
2023-03-21T03:24:21.559Z,509.00
2023-03-21T03:28:21.542Z,506.00
2023-03-21T03:32:21.612Z,502.00
2023-03-21T03:36:31.547Z,512.00
2023-03-21T03:40:22.667Z,503.00
2023-03-21T03:44:21.609Z,508.00
2023-03-21T03:48:21.624Z,508.00
2023-03-21T03:52:21.537Z,504.00
2023-03-21T03:56:21.490Z,503.00
2023-03-21T04:00:21.508Z,506.00
2023-03-21T04:04:21.641Z,510.00
2023-03-21T04:08:21.651Z,505.00
2023-03-21T04:12:21.774Z,503.00
2023-03-21T04:16:21.853Z,504.00
2023-03-21T04:20:35.615Z,505.00
2023-03-21T04:24:22.902Z,508.00
2023-03-21T04:28:21.854Z,507.00
2023-03-21T04:32:21.818Z,503.00
2023-03-21T04:36:21.764Z,513.00
2023-03-21T04:40:21.806Z,508.00
2023-03-21T04:44:21.927Z,507.00
2023-03-21T04:48:22.018Z,508.00
2023-03-21T04:52:23.757Z,500.00
2023-03-21T04:56:22.069Z,507.00
2023-03-21T05:00:22.037Z,506.00
2023-03-21T05:04:22.066Z,500.00
2023-03-21T05:08:21.958Z,505.00
2023-03-21T05:12:21.911Z,500.00
2023-03-21T05:16:21.922Z,509.00
2023-03-21T05:20:22.160Z,505.00
2023-03-21T05:24:21.783Z,511.00
2023-03-21T05:28:21.741Z,501.00
2023-03-21T05:32:21.727Z,505.00
2023-03-21T05:36:21.700Z,512.00
2023-03-21T05:40:21.655Z,501.00
2023-03-21T05:44:21.613Z,513.00
2023-03-21T05:48:21.620Z,512.00
2023-03-21T05:52:21.559Z,514.00
2023-03-21T05:56:21.496Z,509.00
2023-03-21T06:00:21.596Z,510.00
2023-03-21T06:04:21.706Z,507.00
2023-03-21T06:08:21.860Z,506.00
2023-03-21T06:12:21.982Z,510.00
2023-03-21T06:16:22.159Z,512.00
2023-03-21T06:20:22.262Z,507.00
2023-03-21T06:24:22.353Z,511.00
2023-03-21T06:28:22.466Z,511.00
2023-03-21T06:32:22.637Z,512.00
2023-03-21T06:36:22.742Z,504.00
2023-03-21T06:40:23.200Z,505.00
2023-03-21T06:44:22.957Z,514.00
2023-03-21T06:48:23.205Z,533.00
2023-03-21T06:52:23.013Z,637.00
2023-03-21T06:56:23.193Z,629.00
2023-03-21T07:00:23.173Z,651.00
2023-03-21T07:04:22.891Z,687.00
2023-03-21T07:08:22.875Z,730.00
2023-03-21T07:12:22.845Z,771.00
2023-03-21T07:16:23.234Z,1400.00
2023-03-21T07:20:22.777Z,1245.00
2023-03-21T07:24:22.728Z,1175.00
2023-03-21T07:28:22.701Z,1107.00
2023-03-21T07:32:22.776Z,1108.00
2023-03-21T07:36:22.734Z,1111.00
2023-03-21T07:40:22.677Z,1115.00
2023-03-21T07:44:22.653Z,1111.00
2023-03-21T07:48:22.785Z,1094.00
2023-03-21T07:52:22.743Z,1078.00
2023-03-21T07:56:22.734Z,1111.00
2023-03-21T08:00:22.531Z,1161.00
2023-03-21T08:04:22.486Z,1187.00
2023-03-21T08:08:22.427Z,1225.00
2023-03-21T08:12:22.424Z,1252.00
2023-03-21T08:16:22.420Z,1358.00
2023-03-21T08:20:22.324Z,1333.00
2023-03-21T08:24:22.392Z,1349.00
2023-03-21T08:28:22.483Z,1368.00
2023-03-21T08:32:22.511Z,1357.00
2023-03-21T08:36:22.539Z,1374.00
2023-03-21T08:40:22.736Z,1370.00
2023-03-21T08:44:22.525Z,1348.00
2023-03-21T08:48:22.769Z,1337.00
2023-03-21T08:52:22.741Z,927.00
2023-03-21T08:56:22.674Z,867.00
2023-03-21T09:00:23.757Z,996.00
2023-03-21T09:04:23.267Z,1068.00
2023-03-21T09:08:22.869Z,1131.00
2023-03-21T09:12:22.853Z,1219.00
2023-03-21T09:16:22.845Z,1292.00
2023-03-21T09:20:22.789Z,1353.00
2023-03-21T09:24:22.753Z,1463.00
2023-03-21T09:28:22.717Z,1500.00
2023-03-21T09:32:22.694Z,1531.00
2023-03-21T09:36:22.759Z,1559.00
2023-03-21T09:40:22.761Z,1520.00
2023-03-21T09:44:22.561Z,782.00
2023-03-21T09:48:22.776Z,843.00
2023-03-21T09:52:22.739Z,809.00
2023-03-21T09:56:22.784Z,578.00
2023-03-21T10:00:22.520Z,503.00
2023-03-21T10:04:22.515Z,542.00
2023-03-21T10:08:22.796Z,649.00
2023-03-21T10:12:22.323Z,821.00
2023-03-21T10:16:22.589Z,926.00
2023-03-21T10:20:22.622Z,986.00
2023-03-21T10:24:22.771Z,982.00
2023-03-21T10:28:22.424Z,1035.00
2023-03-21T10:32:22.879Z,1030.00
2023-03-21T10:36:22.377Z,1043.00
2023-03-21T10:40:22.785Z,1035.00
2023-03-21T10:44:22.306Z,844.00
2023-03-21T10:48:22.403Z,905.00
2023-03-21T10:52:22.192Z,963.00
2023-03-21T10:56:22.178Z,1048.00
2023-03-21T11:00:22.277Z,1119.00
2023-03-21T11:04:22.246Z,1091.00
2023-03-21T11:08:22.405Z,928.00
2023-03-21T11:12:22.534Z,946.00
2023-03-21T11:16:22.709Z,938.00
2023-03-21T11:20:22.826Z,933.00
2023-03-21T11:24:23.012Z,978.00
2023-03-21T11:28:23.136Z,939.00
2023-03-21T11:32:23.219Z,916.00
2023-03-21T11:36:23.862Z,869.00
2023-03-21T11:40:23.873Z,957.00
2023-03-21T11:44:23.517Z,912.00
2023-03-21T11:48:23.628Z,990.00
2023-03-21T11:52:23.587Z,1105.00
2023-03-21T11:56:23.826Z,1241.00
2023-03-21T12:00:23.722Z,1337.00
2023-03-21T12:04:23.635Z,1455.00
2023-03-21T12:08:23.562Z,1581.00
2023-03-21T12:12:30.010Z,1633.00
2023-03-21T12:16:24.595Z,1668.00
2023-03-21T12:20:23.467Z,1740.00
2023-03-21T12:24:23.418Z,1786.00
2023-03-21T12:28:32.389Z,1839.00
2023-03-21T12:32:24.850Z,1899.00
2023-03-21T12:36:23.873Z,1985.00
2023-03-21T12:40:23.434Z,1958.00
2023-03-21T12:44:23.593Z,1917.00
2023-03-21T12:48:23.934Z,1874.00
2023-03-21T12:52:23.783Z,1842.00
2023-03-21T12:56:23.929Z,1828.00
2023-03-21T13:00:24.251Z,1775.00
2023-03-21T13:04:24.891Z,1693.00
2023-03-21T13:08:24.105Z,1035.00
2023-03-21T13:12:24.056Z,603.00
2023-03-21T13:16:24.147Z,504.00
2023-03-21T13:20:23.993Z,499.00
2023-03-21T13:24:24.333Z,520.00
2023-03-21T13:28:23.919Z,781.00
2023-03-21T13:32:23.976Z,1030.00
2023-03-21T13:36:23.849Z,1111.00
2023-03-21T13:40:23.821Z,1216.00
2023-03-21T13:44:23.789Z,1276.00
2023-03-21T13:48:23.891Z,1380.00
2023-03-21T13:52:23.695Z,1447.00
2023-03-21T13:56:23.690Z,1718.00
2023-03-21T14:00:23.709Z,1678.00
2023-03-21T14:04:27.186Z,1769.00
2023-03-21T14:08:36.443Z,1802.00
2023-03-21T14:12:24.550Z,1842.00
2023-03-21T14:16:23.509Z,1893.00
2023-03-21T14:20:23.969Z,1901.00
2023-03-21T14:24:23.409Z,1920.00
2023-03-21T14:28:23.892Z,1921.00
2023-03-21T14:32:23.322Z,1908.00
2023-03-21T14:36:23.380Z,1936.00
2023-03-21T14:40:23.287Z,1932.00
2023-03-21T14:44:23.257Z,1937.00
2023-03-21T14:48:23.286Z,1957.00
2023-03-21T14:52:23.259Z,1997.00
2023-03-21T14:56:23.249Z,1967.00
2023-03-21T15:00:23.384Z,1926.00
2023-03-21T15:04:23.526Z,1882.00
2023-03-21T15:08:23.988Z,1912.00
2023-03-21T15:12:24.625Z,1892.00
2023-03-21T15:16:23.978Z,1887.00
2023-03-21T15:20:24.116Z,1884.00
2023-03-21T15:24:24.314Z,1859.00
2023-03-21T15:28:24.421Z,1868.00
2023-03-21T15:32:24.603Z,1844.00
2023-03-21T15:36:24.819Z,1824.00
2023-03-21T15:40:25.069Z,1801.00
2023-03-21T15:44:25.225Z,1768.00
2023-03-21T15:48:25.443Z,1760.00
2023-03-21T15:52:25.660Z,1756.00
2023-03-21T15:56:25.950Z,1724.00
2023-03-21T16:00:25.870Z,1717.00
2023-03-21T16:04:25.774Z,1695.00
2023-03-21T16:08:25.716Z,1673.00
2023-03-21T16:12:25.789Z,1656.00
2023-03-21T16:16:25.720Z,1638.00
2023-03-21T16:20:25.662Z,1621.00
2023-03-21T16:24:25.592Z,1606.00
2023-03-21T16:28:25.609Z,1581.00
2023-03-21T16:32:25.529Z,1559.00
2023-03-21T16:36:25.489Z,1551.00
2023-03-21T16:40:25.446Z,1543.00
2023-03-21T16:44:25.446Z,1498.00
2023-03-21T16:48:25.500Z,1492.00
2023-03-21T16:52:26.450Z,1472.00
2023-03-21T16:56:25.445Z,1460.00
2023-03-21T17:00:25.405Z,1431.00
2023-03-21T17:04:25.389Z,1423.00
2023-03-21T17:08:25.393Z,1407.00
2023-03-21T17:12:25.355Z,1381.00
2023-03-21T17:16:26.922Z,1386.00
2023-03-21T17:20:25.409Z,1359.00
2023-03-21T17:24:25.427Z,1360.00
2023-03-21T17:28:25.435Z,1344.00
2023-03-21T17:32:25.504Z,1329.00
2023-03-21T17:36:25.550Z,1319.00
2023-03-21T17:40:25.631Z,1297.00
2023-03-21T17:44:25.733Z,1296.00
2023-03-21T17:48:25.755Z,1288.00
2023-03-21T17:52:25.847Z,1276.00
2023-03-21T17:56:25.904Z,1265.00
2023-03-21T18:00:26.058Z,1256.00
2023-03-21T18:04:26.278Z,1237.00
2023-03-21T18:08:26.228Z,1239.00
2023-03-21T18:12:26.390Z,1220.00
2023-03-21T18:16:26.420Z,1218.00
2023-03-21T18:20:44.454Z,1209.00
2023-03-21T18:24:27.453Z,1182.00
2023-03-21T18:28:26.406Z,1185.00
2023-03-21T18:32:26.490Z,1160.00
2023-03-21T18:36:28.707Z,1158.00
2023-03-21T18:40:26.345Z,1137.00
2023-03-21T18:44:26.303Z,1133.00
2023-03-21T18:48:26.344Z,1125.00
2023-03-21T18:52:26.535Z,1119.00
2023-03-21T19:00:27.228Z,1105.00
2023-03-21T19:04:30.316Z,1088.00
2023-03-21T19:08:26.084Z,1077.00
2023-03-21T19:12:26.042Z,1069.00
2023-03-21T19:16:30.772Z,1049.00
2023-03-21T19:20:26.990Z,1051.00
2023-03-21T19:24:28.567Z,1042.00
2023-03-21T19:28:25.913Z,1033.00
2023-03-21T19:32:25.867Z,1011.00
2023-03-21T19:36:26.412Z,1006.00
2023-03-21T19:40:25.800Z,998.00
2023-03-21T19:44:25.748Z,992.00
2023-03-21T19:48:27.088Z,988.00
2023-03-21T19:52:25.711Z,973.00
2023-03-21T19:56:27.289Z,959.00
2023-03-21T20:00:25.623Z,949.00
2023-03-21T20:04:25.597Z,950.00
2023-03-21T20:08:25.555Z,922.00
2023-03-21T20:12:25.642Z,931.00
2023-03-21T20:16:33.659Z,921.00
2023-03-21T20:20:26.752Z,922.00
2023-03-21T20:24:25.732Z,908.00
2023-03-21T20:28:28.459Z,902.00
2023-03-21T20:32:25.645Z,896.00
2023-03-21T20:36:43.105Z,877.00
2023-03-21T20:40:26.617Z,872.00
2023-03-21T20:44:48.411Z,872.00
2023-03-21T20:48:26.518Z,862.00
2023-03-21T20:52:57.841Z,867.00
2023-03-21T20:56:26.466Z,858.00
2023-03-21T21:00:25.402Z,842.00
2023-03-21T21:04:44.203Z,839.00
2023-03-21T21:08:26.565Z,836.00
2023-03-21T21:12:26.034Z,822.00
2023-03-21T21:16:25.796Z,837.00
2023-03-21T21:20:25.939Z,820.00
2023-03-21T21:24:26.181Z,810.00
2023-03-21T21:28:26.353Z,805.00
2023-03-21T21:32:26.568Z,802.00
2023-03-21T21:36:26.793Z,777.00
2023-03-21T21:40:27.015Z,771.00
2023-03-21T21:44:27.222Z,773.00
2023-03-21T21:48:27.170Z,762.00
2023-03-21T21:52:27.166Z,765.00
2023-03-21T21:56:27.109Z,752.00
2023-03-21T22:00:27.075Z,758.00
2023-03-21T22:04:27.060Z,743.00
2023-03-21T22:08:26.997Z,750.00
2023-03-21T22:12:26.961Z,737.00
2023-03-21T22:16:26.992Z,732.00
2023-03-21T22:20:26.913Z,722.00
2023-03-21T22:24:26.947Z,700.00
2023-03-21T22:28:26.933Z,707.00
2023-03-21T22:32:26.903Z,701.00
2023-03-21T22:36:26.845Z,691.00
2023-03-21T22:40:26.816Z,682.00
2023-03-21T22:44:26.784Z,676.00
2023-03-21T22:48:26.740Z,679.00
2023-03-21T22:52:26.693Z,664.00
2023-03-21T22:56:26.680Z,666.00
2023-03-21T23:00:26.647Z,659.00
2023-03-21T23:04:26.696Z,660.00
2023-03-21T23:08:26.597Z,653.00
2023-03-21T23:12:26.564Z,659.00
2023-03-21T23:16:26.532Z,653.00
2023-03-21T23:20:26.498Z,650.00
2023-03-21T23:24:26.421Z,650.00
2023-03-21T23:28:26.395Z,649.00
2023-03-21T23:32:26.389Z,650.00
2023-03-21T23:36:26.343Z,647.00
2023-03-21T23:40:26.296Z,648.00
2023-03-21T23:44:26.271Z,645.00
2023-03-21T23:48:26.233Z,640.00
2023-03-21T23:52:26.191Z,635.00
2023-03-21T23:56:26.160Z,640.00
